createdAt,value
2022-08-18T00:00:22.982Z,25.14
2022-08-18T00:01:26.004Z,25.15
2022-08-18T00:02:33.084Z,25.16
2022-08-18T00:03:56.966Z,25.15
2022-08-18T00:04:57.177Z,25.15
2022-08-18T00:06:00.391Z,25.15
2022-08-18T00:07:04.570Z,25.15
2022-08-18T00:08:07.532Z,25.14
2022-08-18T00:09:11.097Z,25.13
2022-08-18T00:10:17.946Z,25.13
2022-08-18T00:11:20.082Z,25.12
2022-08-18T00:12:26.485Z,25.11
2022-08-18T00:13:29.492Z,25.12
2022-08-18T00:14:32.947Z,25.10
2022-08-18T00:15:41.712Z,25.08
2022-08-18T00:16:40.961Z,25.08
2022-08-18T00:17:44.026Z,25.06
2022-08-18T00:18:47.212Z,25.06
2022-08-18T00:19:50.287Z,25.06
2022-08-18T00:20:53.646Z,25.06
2022-08-18T00:21:57.417Z,25.05
2022-08-18T00:23:00.390Z,25.06
2022-08-18T00:24:04.312Z,25.06
2022-08-18T00:25:12.068Z,25.06
2022-08-18T00:26:16.053Z,25.05
2022-08-18T00:27:23.362Z,25.05
2022-08-18T00:28:27.081Z,25.05
2022-08-18T00:29:29.948Z,25.04
2022-08-18T00:30:33.924Z,25.04
2022-08-18T00:31:37.081Z,25.03
2022-08-18T00:32:43.221Z,25.04
2022-08-18T00:33:46.406Z,25.04
2022-08-18T00:34:49.598Z,25.03
2022-08-18T00:35:53.031Z,25.03
2022-08-18T00:36:56.114Z,25.03
2022-08-18T00:38:01.781Z,25.02
2022-08-18T00:39:05.073Z,25.02
2022-08-18T00:40:12.299Z,25.02
2022-08-18T00:41:15.702Z,25.02
2022-08-18T00:42:29.975Z,25.01
2022-08-18T00:43:46.536Z,25.02
2022-08-18T00:44:49.684Z,25.01
2022-08-18T00:45:52.760Z,25.01
2022-08-18T00:46:56.055Z,25.01
2022-08-18T00:48:00.107Z,25.00
2022-08-18T00:49:04.380Z,25.01
2022-08-18T00:50:08.247Z,25.01
2022-08-18T00:51:16.682Z,25.00
2022-08-18T00:52:21.894Z,24.99
2022-08-18T00:53:41.547Z,24.99
2022-08-18T00:54:46.034Z,24.98
2022-08-18T00:55:54.268Z,24.97
2022-08-18T00:56:59.694Z,24.96
2022-08-18T00:58:06.223Z,24.96
2022-08-18T00:59:42.029Z,24.95
2022-08-18T01:00:46.928Z,24.96
2022-08-18T01:01:53.953Z,24.93
2022-08-18T01:03:00.018Z,24.93
2022-08-18T01:04:06.723Z,24.92
2022-08-18T01:05:16.419Z,24.93
2022-08-18T01:06:41.020Z,24.93
2022-08-18T01:07:46.467Z,24.93
2022-08-18T01:08:49.458Z,24.91
2022-08-18T01:09:52.611Z,24.90
2022-08-18T01:10:57.374Z,24.88
2022-08-18T01:12:00.363Z,24.88
2022-08-18T01:13:05.398Z,24.89
2022-08-18T01:14:10.147Z,24.89
2022-08-18T01:15:28.061Z,24.89
2022-08-18T01:16:39.404Z,24.88
2022-08-18T01:18:02.688Z,24.89
2022-08-18T01:19:25.241Z,24.88
2022-08-18T01:20:54.287Z,24.86
2022-08-18T01:22:00.870Z,24.83
2022-08-18T01:23:13.709Z,24.81
2022-08-18T01:24:21.831Z,24.80
2022-08-18T01:25:42.698Z,24.80
2022-08-18T01:26:48.841Z,24.80
2022-08-18T01:27:52.173Z,24.81
2022-08-18T01:28:55.393Z,24.82
2022-08-18T01:30:02.082Z,24.82
2022-08-18T01:31:08.595Z,24.82
2022-08-18T01:32:13.547Z,24.82
2022-08-18T01:33:18.229Z,24.80
2022-08-18T01:34:24.314Z,24.79
2022-08-18T01:35:27.598Z,24.78
2022-08-18T01:36:30.803Z,24.76
2022-08-18T01:37:34.582Z,24.76
2022-08-18T01:38:38.055Z,24.76
2022-08-18T01:41:06.299Z,24.74
2022-08-18T01:41:21.929Z,24.75
2022-08-18T01:41:51.764Z,24.74
2022-08-18T01:42:56.308Z,24.73
2022-08-18T01:44:00.710Z,24.72
2022-08-18T01:45:07.465Z,24.70
2022-08-18T01:46:11.905Z,24.71
2022-08-18T01:47:16.536Z,24.69
2022-08-18T01:48:19.503Z,24.69
2022-08-18T01:49:22.472Z,24.68
2022-08-18T01:50:26.298Z,24.66
2022-08-18T01:51:39.685Z,24.66
2022-08-18T01:52:36.811Z,24.65
2022-08-18T01:53:39.776Z,24.63
2022-08-18T01:54:42.789Z,24.63
2022-08-18T01:55:45.841Z,24.61
2022-08-18T01:56:49.154Z,24.60
2022-08-18T01:57:52.443Z,24.61
2022-08-18T01:58:55.998Z,24.61
2022-08-18T02:00:00.581Z,24.61
2022-08-18T02:01:04.846Z,24.63
2022-08-18T02:02:09.528Z,24.64
2022-08-18T02:03:14.451Z,24.63
2022-08-18T02:04:36.207Z,24.63
2022-08-18T02:05:26.832Z,24.63
2022-08-18T02:06:33.812Z,24.62
2022-08-18T02:07:37.693Z,24.63
2022-08-18T02:08:42.795Z,24.62
2022-08-18T02:09:46.316Z,24.62
2022-08-18T02:10:51.489Z,24.62
2022-08-18T02:11:56.143Z,24.61
2022-08-18T02:12:59.248Z,24.59
2022-08-18T02:14:02.428Z,24.59
2022-08-18T02:15:07.353Z,24.58
2022-08-18T02:16:11.543Z,24.57
2022-08-18T02:17:14.627Z,24.57
2022-08-18T02:18:25.904Z,24.59
2022-08-18T02:19:25.245Z,24.59
2022-08-18T02:20:28.819Z,24.60
2022-08-18T02:21:32.046Z,24.61
2022-08-18T02:22:35.307Z,24.61
2022-08-18T02:23:39.467Z,24.60
2022-08-18T02:24:43.808Z,24.59
2022-08-18T02:25:46.874Z,24.57
2022-08-18T02:26:49.860Z,24.55
2022-08-18T02:27:53.079Z,24.55
2022-08-18T02:28:56.403Z,24.53
2022-08-18T02:30:00.479Z,24.52
2022-08-18T02:31:08.953Z,24.48
2022-08-18T02:32:13.824Z,24.48
2022-08-18T02:33:16.986Z,24.46
2022-08-18T02:34:20.280Z,24.46
2022-08-18T02:35:23.336Z,24.45
2022-08-18T02:36:28.776Z,24.44
2022-08-18T02:37:32.401Z,24.44
2022-08-18T02:38:35.523Z,24.44
2022-08-18T02:39:38.743Z,24.45
2022-08-18T02:40:41.959Z,24.46
2022-08-18T02:41:44.921Z,24.46
2022-08-18T02:42:48.104Z,24.46
2022-08-18T02:43:51.056Z,24.47
2022-08-18T02:44:54.516Z,24.47
2022-08-18T02:45:57.610Z,24.50
2022-08-18T02:47:01.379Z,24.51
2022-08-18T02:48:05.457Z,24.53
2022-08-18T02:49:09.158Z,24.55
2022-08-18T02:50:13.560Z,24.56
2022-08-18T02:51:17.694Z,24.59
2022-08-18T02:52:20.674Z,24.60
2022-08-18T02:53:24.359Z,24.62
2022-08-18T02:54:27.458Z,24.64
2022-08-18T02:55:30.502Z,24.67
2022-08-18T02:56:35.923Z,24.67
2022-08-18T02:57:46.301Z,24.68
2022-08-18T02:58:54.259Z,24.70
2022-08-18T02:59:57.334Z,24.72
2022-08-18T03:01:02.647Z,24.73
2022-08-18T03:02:07.207Z,24.74
2022-08-18T03:03:12.788Z,24.75
2022-08-18T03:04:19.190Z,24.74
2022-08-18T03:05:22.322Z,24.74
2022-08-18T03:06:27.545Z,24.74
2022-08-18T03:07:30.514Z,24.72
2022-08-18T03:08:33.569Z,24.71
2022-08-18T03:09:36.641Z,24.71
2022-08-18T03:10:39.623Z,24.70
2022-08-18T03:11:43.586Z,24.69
2022-08-18T03:12:46.941Z,24.69
2022-08-18T03:13:50.374Z,24.68
2022-08-18T03:14:53.340Z,24.66
2022-08-18T03:15:57.092Z,24.66
2022-08-18T03:17:02.573Z,24.66
2022-08-18T03:18:05.617Z,24.65
2022-08-18T03:19:08.595Z,24.65
2022-08-18T03:20:13.480Z,24.64
2022-08-18T03:21:21.062Z,24.64
2022-08-18T03:22:28.310Z,24.64
2022-08-18T03:23:30.508Z,24.64
2022-08-18T03:24:34.001Z,24.64
2022-08-18T03:25:46.232Z,24.65
2022-08-18T03:26:49.428Z,24.65
2022-08-18T03:27:52.614Z,24.64
2022-08-18T03:28:57.206Z,24.64
2022-08-18T03:30:01.920Z,24.64
2022-08-18T03:31:05.148Z,24.64
2022-08-18T03:32:08.229Z,24.63
2022-08-18T03:33:11.198Z,24.63
2022-08-18T03:34:15.383Z,24.63
2022-08-18T03:35:18.406Z,24.63
2022-08-18T03:36:24.738Z,24.64
2022-08-18T03:37:27.732Z,24.64
2022-08-18T03:38:30.676Z,24.66
2022-08-18T03:39:33.686Z,24.65
2022-08-18T03:40:37.015Z,24.66
2022-08-18T03:41:43.934Z,24.66
2022-08-18T03:42:47.634Z,24.67
2022-08-18T03:43:51.949Z,24.67
2022-08-18T03:44:55.363Z,24.66
2022-08-18T03:46:06.536Z,24.66
2022-08-18T03:47:11.380Z,24.66
2022-08-18T03:48:14.367Z,24.66
2022-08-18T03:49:18.522Z,24.67
2022-08-18T03:50:23.789Z,24.69
2022-08-18T03:51:31.419Z,24.70
2022-08-18T03:52:36.206Z,24.71
2022-08-18T03:53:41.396Z,24.72
2022-08-18T03:54:44.380Z,24.73
2022-08-18T03:55:47.467Z,24.74
2022-08-18T03:56:50.618Z,24.75
2022-08-18T03:57:56.083Z,24.75
2022-08-18T03:59:02.624Z,24.76
2022-08-18T04:00:06.645Z,24.77
2022-08-18T04:01:10.066Z,24.77
2022-08-18T04:02:13.818Z,24.77
2022-08-18T04:03:16.894Z,24.78
2022-08-18T04:04:23.482Z,24.77
2022-08-18T04:05:26.585Z,24.77
2022-08-18T04:06:33.160Z,24.77
2022-08-18T04:07:36.457Z,24.78
2022-08-18T04:08:39.433Z,24.77
2022-08-18T04:09:42.997Z,24.78
2022-08-18T04:10:46.289Z,24.79
2022-08-18T04:11:49.535Z,24.79
2022-08-18T04:12:52.747Z,24.79
2022-08-18T04:13:58.650Z,24.79
2022-08-18T04:15:04.443Z,24.80
2022-08-18T04:16:07.841Z,24.81
2022-08-18T04:17:10.989Z,24.81
2022-08-18T04:18:14.040Z,24.83
2022-08-18T04:19:26.187Z,24.83
2022-08-18T04:20:24.012Z,24.85
2022-08-18T04:21:27.222Z,24.85
2022-08-18T04:22:32.162Z,24.86
2022-08-18T04:23:43.429Z,24.87
2022-08-18T04:24:45.430Z,24.90
2022-08-18T04:25:58.409Z,24.91
2022-08-18T04:27:04.310Z,24.93
2022-08-18T04:28:07.406Z,24.95
2022-08-18T04:29:11.727Z,24.96
2022-08-18T04:30:15.256Z,24.99
2022-08-18T04:31:20.003Z,25.03
2022-08-18T04:32:23.898Z,25.03
2022-08-18T04:33:29.291Z,25.05
2022-08-18T04:34:32.959Z,25.05
2022-08-18T04:35:36.170Z,25.08
2022-08-18T04:36:41.446Z,25.08
2022-08-18T04:37:44.786Z,25.08
2022-08-18T04:38:47.903Z,25.08
2022-08-18T04:39:50.892Z,25.09
2022-08-18T04:40:54.363Z,25.11
2022-08-18T04:41:58.938Z,25.12
2022-08-18T04:43:02.135Z,25.14
2022-08-18T04:44:07.953Z,25.16
2022-08-18T04:45:11.133Z,25.17
2022-08-18T04:46:14.652Z,25.19
2022-08-18T04:47:17.728Z,25.20
2022-08-18T04:48:20.827Z,25.23
2022-08-18T04:49:26.318Z,25.23
2022-08-18T04:50:29.639Z,25.24
2022-08-18T04:52:26.625Z,25.25
2022-08-18T04:52:56.713Z,25.26
2022-08-18T04:54:00.334Z,25.27
2022-08-18T04:55:03.812Z,25.27
2022-08-18T04:56:07.041Z,25.29
2022-08-18T04:57:18.575Z,25.29
2022-08-18T04:58:23.871Z,25.30
2022-08-18T04:59:27.503Z,25.30
2022-08-18T05:00:32.344Z,25.32
2022-08-18T05:01:41.593Z,25.33
2022-08-18T05:02:45.432Z,25.33
2022-08-18T05:03:50.792Z,25.34
2022-08-18T05:04:54.158Z,25.34
2022-08-18T05:05:59.274Z,25.34
2022-08-18T05:07:03.327Z,25.36
2022-08-18T05:08:06.416Z,25.38
2022-08-18T05:09:11.747Z,25.39
2022-08-18T05:10:17.088Z,25.40
2022-08-18T05:11:22.982Z,25.43
2022-08-18T05:12:26.870Z,25.45
2022-08-18T05:13:30.111Z,25.47
2022-08-18T05:14:33.999Z,25.48
2022-08-18T05:15:59.448Z,25.51
2022-08-18T05:16:48.657Z,25.52
2022-08-18T05:17:50.333Z,25.55
2022-08-18T05:18:54.507Z,25.56
2022-08-18T05:20:03.311Z,25.58
2022-08-18T05:21:10.540Z,25.60
2022-08-18T05:22:16.788Z,25.62
2022-08-18T05:23:23.239Z,25.64
2022-08-18T05:24:33.760Z,25.66
2022-08-18T05:25:33.760Z,25.66
2022-08-18T05:26:37.892Z,25.69
2022-08-18T05:27:43.296Z,25.71
2022-08-18T05:28:46.934Z,25.72
2022-08-18T05:29:51.758Z,25.74
2022-08-18T05:30:55.188Z,25.76
2022-08-18T05:32:03.055Z,25.77
2022-08-18T05:33:06.467Z,25.78
2022-08-18T05:34:09.388Z,25.79
2022-08-18T05:35:16.237Z,25.82
2022-08-18T05:36:24.776Z,25.84
2022-08-18T05:37:40.535Z,25.85
2022-08-18T05:39:08.204Z,25.86
2022-08-18T05:40:14.022Z,25.87
2022-08-18T05:41:33.645Z,25.88
2022-08-18T05:42:39.423Z,25.88
2022-08-18T05:43:52.161Z,25.90
2022-08-18T05:44:54.042Z,25.92
2022-08-18T05:45:59.250Z,25.93
2022-08-18T05:47:15.890Z,25.94
2022-08-18T05:48:19.097Z,25.97
2022-08-18T05:49:24.627Z,25.97
2022-08-18T05:50:30.820Z,25.97
2022-08-18T05:51:40.332Z,26.00
2022-08-18T05:54:26.437Z,26.14
2022-08-18T05:55:51.415Z,26.05
2022-08-18T05:56:58.700Z,26.07
2022-08-18T05:58:05.342Z,26.08
2022-08-18T05:59:10.027Z,26.10
2022-08-18T06:00:14.083Z,26.13
2022-08-18T06:02:54.311Z,26.17
2022-08-18T06:04:06.872Z,26.19
2022-08-18T06:05:13.613Z,26.21
2022-08-18T06:06:20.358Z,26.23
2022-08-18T06:07:27.071Z,26.24
2022-08-18T06:08:38.225Z,26.27
2022-08-18T06:09:47.788Z,26.28
2022-08-18T06:10:51.050Z,26.34
2022-08-18T06:11:57.678Z,26.34
2022-08-18T06:13:02.398Z,26.39
2022-08-18T06:14:05.698Z,26.39
2022-08-18T06:15:18.289Z,26.41
2022-08-18T06:16:34.838Z,26.44
2022-08-18T06:17:49.602Z,26.46
2022-08-18T06:19:07.562Z,26.48
2022-08-18T06:20:35.881Z,26.51
2022-08-18T06:21:54.344Z,26.51
2022-08-18T06:23:15.910Z,26.51
2022-08-18T06:24:38.862Z,26.51
2022-08-18T06:26:06.650Z,26.51
2022-08-18T06:27:16.036Z,26.52
2022-08-18T06:28:20.127Z,26.53
2022-08-18T06:29:46.640Z,26.54
2022-08-18T06:30:59.526Z,26.56
2022-08-18T06:32:20.971Z,26.57
2022-08-18T06:33:59.159Z,26.58
2022-08-18T06:35:20.545Z,26.60
2022-08-18T06:36:57.985Z,26.62
2022-08-18T06:38:29.003Z,26.62
2022-08-18T06:39:44.732Z,26.64
2022-08-18T06:40:49.763Z,26.67
2022-08-18T06:41:54.196Z,26.67
2022-08-18T06:43:02.055Z,26.69
2022-08-18T06:44:09.061Z,26.73
2022-08-18T06:45:15.575Z,26.73
2022-08-18T06:46:23.628Z,26.76
2022-08-18T06:47:51.934Z,26.80
2022-08-18T06:48:58.646Z,26.80
2022-08-18T06:50:20.084Z,26.84
2022-08-18T06:51:27.310Z,26.84
2022-08-18T06:52:36.782Z,26.89
2022-08-18T06:53:57.631Z,26.89
2022-08-18T06:55:04.619Z,26.91
2022-08-18T06:56:27.024Z,26.96
2022-08-18T06:57:37.158Z,26.98
2022-08-18T06:58:41.396Z,27.02
2022-08-18T06:59:48.039Z,27.04
2022-08-18T07:00:56.012Z,27.05
2022-08-18T07:02:06.763Z,27.08
2022-08-18T07:03:15.626Z,27.12
2022-08-18T07:04:37.700Z,27.12
2022-08-18T07:05:59.299Z,27.14
2022-08-18T07:07:18.249Z,27.20
2022-08-18T07:08:42.540Z,27.22
2022-08-18T07:09:47.274Z,27.22
2022-08-18T07:10:52.205Z,27.23
2022-08-18T07:12:01.904Z,27.25
2022-08-18T07:13:14.812Z,27.27
2022-08-18T07:14:25.154Z,27.30
2022-08-18T07:15:28.477Z,27.31
2022-08-18T07:16:57.148Z,27.32
2022-08-18T07:17:52.909Z,27.34
2022-08-18T07:18:44.009Z,27.35
2022-08-18T07:19:59.689Z,27.37
2022-08-18T07:21:02.810Z,27.39
2022-08-18T07:22:12.211Z,27.42
2022-08-18T07:23:39.320Z,27.45
2022-08-18T07:24:48.821Z,27.48
2022-08-18T07:26:01.336Z,27.50
2022-08-18T07:27:10.971Z,27.52
2022-08-18T07:28:33.048Z,27.53
2022-08-18T07:29:39.695Z,27.56
2022-08-18T07:31:00.263Z,27.57
2022-08-18T07:31:51.229Z,27.59
2022-08-18T07:33:03.966Z,27.61
2022-08-18T07:34:13.668Z,27.64
2022-08-18T07:35:26.200Z,27.67
2022-08-18T07:36:51.134Z,27.69
2022-08-18T07:38:18.940Z,27.70
2022-08-18T07:40:29.457Z,27.85
2022-08-18T07:41:42.403Z,27.76
2022-08-18T07:42:54.426Z,27.78
2022-08-18T07:44:03.487Z,27.83
2022-08-18T07:45:28.923Z,27.85
2022-08-18T07:46:47.699Z,27.87
2022-08-18T07:49:07.177Z,28.01
2022-08-18T07:50:27.086Z,27.94
2022-08-18T07:51:33.870Z,27.95
2022-08-18T07:52:47.625Z,27.99
2022-08-18T07:54:00.385Z,28.02
2022-08-18T07:55:23.178Z,28.03
2022-08-18T07:57:00.103Z,28.07
2022-08-18T07:58:12.657Z,28.10
2022-08-18T07:59:37.531Z,28.12
2022-08-18T08:01:05.410Z,28.14
2022-08-18T08:02:30.014Z,28.16
2022-08-18T08:03:45.530Z,28.19
2022-08-18T08:04:52.295Z,28.22
2022-08-18T08:06:04.584Z,28.24
2022-08-18T08:07:24.565Z,28.26
2022-08-18T08:08:25.355Z,28.29
2022-08-18T08:09:37.259Z,28.31
2022-08-18T08:10:51.170Z,28.34
2022-08-18T08:12:23.907Z,28.36
2022-08-18T08:13:54.198Z,28.39
2022-08-18T08:14:51.437Z,28.41
2022-08-18T08:16:13.097Z,28.40
2022-08-18T08:17:47.065Z,28.42
2022-08-18T08:18:53.648Z,28.44
2022-08-18T08:20:01.815Z,28.47
2022-08-18T08:21:11.972Z,28.48
2022-08-18T08:22:24.685Z,28.52
2022-08-18T08:23:31.393Z,28.54
2022-08-18T08:24:43.880Z,28.56
2022-08-18T08:25:50.700Z,28.60
2022-08-18T08:27:09.714Z,28.63
2022-08-18T08:28:25.349Z,28.65
2022-08-18T08:29:41.760Z,28.67
2022-08-18T08:32:32.804Z,28.81
2022-08-18T08:33:51.165Z,28.71
2022-08-18T08:34:58.656Z,28.72
2022-08-18T08:36:20.621Z,28.75
2022-08-18T08:37:53.028Z,28.79
2022-08-18T08:39:07.574Z,28.82
2022-08-18T08:40:24.277Z,28.85
2022-08-18T08:41:37.283Z,28.87
2022-08-18T08:42:46.811Z,28.87
2022-08-18T08:43:56.457Z,28.87
2022-08-18T08:45:04.128Z,28.87
2022-08-18T08:46:14.629Z,28.89
2022-08-18T08:47:31.914Z,28.93
2022-08-18T08:48:38.723Z,28.93
2022-08-18T08:49:55.052Z,28.96
2022-08-18T08:50:57.236Z,28.98
2022-08-18T08:52:03.896Z,29.00
2022-08-18T08:53:22.661Z,29.01
2022-08-18T08:54:29.260Z,29.01
2022-08-18T08:55:36.189Z,29.03
2022-08-18T08:56:46.538Z,29.05
2022-08-18T08:58:02.107Z,29.04
2022-08-18T08:59:09.021Z,29.07
2022-08-18T09:00:14.664Z,29.09
2022-08-18T09:01:33.339Z,29.10
2022-08-18T09:02:52.260Z,29.13
2022-08-18T09:04:01.986Z,29.17
2022-08-18T09:05:11.374Z,29.20
2022-08-18T09:06:21.087Z,29.22
2022-08-18T09:07:58.438Z,29.25
2022-08-18T09:09:15.958Z,29.26
2022-08-18T09:10:45.754Z,29.28
2022-08-18T09:11:58.480Z,29.29
2022-08-18T09:13:29.003Z,29.30
2022-08-18T09:15:06.433Z,29.33
2022-08-18T09:16:29.017Z,29.34
2022-08-18T09:17:51.102Z,29.38
2022-08-18T09:19:11.450Z,29.41
2022-08-18T09:20:27.795Z,29.44
2022-08-18T09:21:43.920Z,29.46
2022-08-18T09:22:51.551Z,29.50
2022-08-18T09:23:58.868Z,29.52
2022-08-18T09:25:02.086Z,29.56
2022-08-18T09:26:39.089Z,29.57
2022-08-18T09:28:09.907Z,29.60
2022-08-18T09:29:01.202Z,29.61
2022-08-18T09:30:07.144Z,29.62
2022-08-18T09:31:15.309Z,29.63
2022-08-18T09:32:25.452Z,29.65
2022-08-18T09:33:42.992Z,29.67
2022-08-18T09:35:05.349Z,29.67
2022-08-18T09:36:40.209Z,29.70
2022-08-18T09:37:52.671Z,29.73
2022-08-18T09:39:32.729Z,29.75
2022-08-18T09:41:03.092Z,29.76
2022-08-18T09:43:20.180Z,29.86
2022-08-18T09:44:49.893Z,29.74
2022-08-18T09:46:02.926Z,29.73
2022-08-18T09:47:06.262Z,29.69
2022-08-18T09:48:20.708Z,29.67
2022-08-18T09:49:30.065Z,29.66
2022-08-18T09:50:38.657Z,29.64
2022-08-18T09:51:41.952Z,29.63
2022-08-18T09:52:48.482Z,29.63
2022-08-18T09:53:55.302Z,29.62
2022-08-18T09:55:03.552Z,29.60
2022-08-18T09:56:07.707Z,29.61
2022-08-18T09:57:19.593Z,29.59
2022-08-18T09:58:29.142Z,29.59
2022-08-18T09:59:36.176Z,29.59
2022-08-18T10:00:40.838Z,29.58
2022-08-18T10:01:44.053Z,29.59
2022-08-18T10:02:52.807Z,29.60
2022-08-18T10:04:30.897Z,29.61
2022-08-18T10:05:34.817Z,29.62
2022-08-18T10:08:42.902Z,29.64
2022-08-18T10:10:58.814Z,29.66
2022-08-18T10:11:16.454Z,29.66
2022-08-18T10:12:33.217Z,29.66
2022-08-18T10:14:12.146Z,29.67
2022-08-18T10:15:41.763Z,29.69
2022-08-18T10:17:23.842Z,29.70
2022-08-18T10:18:47.912Z,29.66
2022-08-18T10:20:26.697Z,29.64
2022-08-18T10:21:31.383Z,29.59
2022-08-18T10:22:42.767Z,29.56
2022-08-18T10:24:32.220Z,29.52
2022-08-18T10:25:23.229Z,29.49
2022-08-18T10:26:36.495Z,29.46
2022-08-18T10:27:45.855Z,29.44
2022-08-18T10:29:00.580Z,29.41
2022-08-18T10:30:14.283Z,29.42
2022-08-18T10:31:18.001Z,29.43
2022-08-18T10:32:38.931Z,29.43
2022-08-18T10:34:16.611Z,29.46
2022-08-18T10:35:32.569Z,29.49
2022-08-18T10:36:53.972Z,29.51
2022-08-18T10:38:20.681Z,29.53
2022-08-18T10:39:41.829Z,29.58
2022-08-18T10:41:00.101Z,29.63
2022-08-18T10:43:45.762Z,29.82
2022-08-18T10:44:46.778Z,29.74
2022-08-18T10:46:24.215Z,29.78
2022-08-18T10:47:01.427Z,29.83
2022-08-18T10:49:24.028Z,29.89
2022-08-18T10:50:30.321Z,29.92
2022-08-18T10:52:00.487Z,29.95
2022-08-18T10:53:39.221Z,29.98
2022-08-18T10:54:54.596Z,30.02
2022-08-18T10:56:11.189Z,30.07
2022-08-18T10:57:24.050Z,30.15
2022-08-18T10:58:40.178Z,30.20
2022-08-18T11:01:26.454Z,30.34
2022-08-18T11:02:43.826Z,30.41
2022-08-18T11:09:33.936Z,30.79
2022-08-18T11:10:57.878Z,30.87
2022-08-18T11:11:53.574Z,30.91
2022-08-18T11:15:22.357Z,31.02
2022-08-18T11:16:38.286Z,31.07
2022-08-18T11:18:03.442Z,31.12
2022-08-18T11:19:11.143Z,31.17
2022-08-18T11:20:17.891Z,31.21
2022-08-18T11:21:42.421Z,31.24
2022-08-18T11:22:55.323Z,31.26
2022-08-18T11:24:15.191Z,31.27
2022-08-18T11:27:01.575Z,31.29
2022-08-18T11:29:37.822Z,31.46
2022-08-18T11:30:44.309Z,31.39
2022-08-18T11:31:53.625Z,31.39
2022-08-18T11:33:02.663Z,31.41
2022-08-18T11:34:05.771Z,31.43
2022-08-18T11:35:15.793Z,31.45
2022-08-18T11:36:32.023Z,31.47
2022-08-18T11:37:49.579Z,31.48
2022-08-18T11:38:56.394Z,31.48
2022-08-18T11:40:02.769Z,31.47
2022-08-18T11:41:15.438Z,31.47
2022-08-18T11:42:29.709Z,31.47
2022-08-18T11:43:41.596Z,31.46
2022-08-18T11:44:40.703Z,31.45
2022-08-18T11:45:54.793Z,31.44
2022-08-18T11:47:11.367Z,31.44
2022-08-18T11:48:21.064Z,31.44
2022-08-18T11:49:33.493Z,31.42
2022-08-18T11:51:57.828Z,31.39
2022-08-18T11:53:18.318Z,31.38
2022-08-18T11:54:25.049Z,31.36
2022-08-18T11:55:33.169Z,31.35
2022-08-18T11:56:38.056Z,31.35
2022-08-18T11:59:09.384Z,31.35
2022-08-18T12:00:42.518Z,31.36
2022-08-18T12:01:48.067Z,31.37
2022-08-18T12:03:04.663Z,31.37
2022-08-18T12:04:16.148Z,31.39
2022-08-18T12:05:20.752Z,31.41
2022-08-18T12:06:32.284Z,31.42
2022-08-18T12:07:37.164Z,31.42
2022-08-18T12:08:58.793Z,31.42
2022-08-18T12:11:03.807Z,31.51
2022-08-18T12:12:18.352Z,31.39
2022-08-18T12:13:24.636Z,31.38
2022-08-18T12:14:35.359Z,31.36
2022-08-18T12:16:46.612Z,31.36
2022-08-18T12:17:52.572Z,31.35
2022-08-18T12:18:53.857Z,31.35
2022-08-18T12:19:58.008Z,31.34
2022-08-18T12:21:03.212Z,31.32
2022-08-18T12:22:19.738Z,31.32
2022-08-18T12:23:23.009Z,31.30
2022-08-18T12:24:34.266Z,31.26
2022-08-18T12:25:34.689Z,31.24
2022-08-18T12:26:47.251Z,31.23
2022-08-18T12:27:44.862Z,31.22
2022-08-18T12:28:47.953Z,31.23
2022-08-18T12:29:55.497Z,31.23
2022-08-18T12:31:00.775Z,31.23
2022-08-18T12:32:04.404Z,31.24
2022-08-18T12:33:12.117Z,31.26
2022-08-18T12:34:14.971Z,31.27
2022-08-18T12:35:21.758Z,31.28
2022-08-18T12:36:24.918Z,31.31
2022-08-18T12:38:36.496Z,31.32
2022-08-18T12:39:40.259Z,31.33
2022-08-18T12:40:44.443Z,31.33
2022-08-18T12:41:47.818Z,31.35
2022-08-18T12:42:51.321Z,31.33
2022-08-18T12:43:58.438Z,31.34
2022-08-18T12:44:59.958Z,31.34
2022-08-18T12:46:03.665Z,31.35
2022-08-18T12:47:13.816Z,31.35
2022-08-18T12:48:17.204Z,31.35
2022-08-18T12:49:24.219Z,31.34
2022-08-18T12:50:31.358Z,31.35
2022-08-18T12:51:33.975Z,31.35
2022-08-18T12:53:58.517Z,31.31
2022-08-18T12:54:55.247Z,31.28
2022-08-18T12:55:54.098Z,31.27
2022-08-18T12:56:57.799Z,31.27
2022-08-18T12:58:00.893Z,31.25
2022-08-18T12:59:06.780Z,31.25
2022-08-18T13:00:16.862Z,31.26
2022-08-18T13:01:19.064Z,31.24
2022-08-18T13:02:22.359Z,31.23
2022-08-18T13:03:25.888Z,31.24
2022-08-18T13:04:30.968Z,31.24
2022-08-18T13:05:35.629Z,31.25
2022-08-18T13:06:59.177Z,31.29
2022-08-18T13:07:53.023Z,31.30
2022-08-18T13:08:56.568Z,31.30
2022-08-18T13:10:00.178Z,31.31
2022-08-18T13:11:14.587Z,31.32
2022-08-18T13:12:14.721Z,31.31
2022-08-18T13:13:18.581Z,31.30
2022-08-18T13:14:23.080Z,31.28
2022-08-18T13:15:26.700Z,31.27
2022-08-18T13:16:53.328Z,31.24
2022-08-18T13:17:44.276Z,31.21
2022-08-18T13:18:44.761Z,31.18
2022-08-18T13:19:48.021Z,31.14
2022-08-18T13:20:53.170Z,31.10
2022-08-18T13:21:57.341Z,31.08
2022-08-18T13:23:00.622Z,31.05
2022-08-18T13:24:04.653Z,31.01
2022-08-18T13:25:11.523Z,30.99
2022-08-18T13:26:22.802Z,30.96
2022-08-18T13:27:26.051Z,30.94
2022-08-18T13:28:35.492Z,30.93
2022-08-18T13:29:37.409Z,30.91
2022-08-18T13:30:41.413Z,30.91
2022-08-18T13:31:56.178Z,30.92
2022-08-18T13:32:59.346Z,30.96
2022-08-18T13:33:59.440Z,31.00
2022-08-18T13:35:13.392Z,31.05
2022-08-18T13:36:09.538Z,31.12
2022-08-18T13:37:14.641Z,31.19
2022-08-18T13:38:25.815Z,31.25
2022-08-18T13:39:25.211Z,31.31
2022-08-18T13:40:31.467Z,31.37
2022-08-18T13:41:34.875Z,31.41
2022-08-18T13:42:50.901Z,31.46
2022-08-18T13:43:52.707Z,31.48
2022-08-18T13:45:24.869Z,31.50
2022-08-18T13:46:06.306Z,31.51
2022-08-18T13:47:09.419Z,31.53
2022-08-18T13:48:12.926Z,31.55
2022-08-18T13:49:18.554Z,31.57
2022-08-18T13:50:29.642Z,31.59
2022-08-18T13:51:30.623Z,31.62
2022-08-18T13:52:36.297Z,31.63
2022-08-18T13:53:51.008Z,31.63
2022-08-18T13:54:45.464Z,31.65
2022-08-18T13:55:50.609Z,31.65
2022-08-18T13:56:54.938Z,31.66
2022-08-18T13:57:59.266Z,31.67
2022-08-18T13:59:04.842Z,31.67
2022-08-18T14:00:18.331Z,31.69
2022-08-18T14:01:42.525Z,31.72
2022-08-18T14:02:26.964Z,31.76
2022-08-18T14:03:30.965Z,31.81
2022-08-18T14:04:35.845Z,31.85
2022-08-18T14:05:51.726Z,31.91
2022-08-18T14:06:51.204Z,31.94
2022-08-18T14:07:49.723Z,31.96
2022-08-18T14:08:55.022Z,31.98
2022-08-18T14:09:58.349Z,31.98
2022-08-18T14:11:04.686Z,31.98
2022-08-18T14:12:15.711Z,31.97
2022-08-18T14:13:20.709Z,31.96
2022-08-18T14:14:24.087Z,31.94
2022-08-18T14:15:28.824Z,31.92
2022-08-18T14:16:34.688Z,31.90
2022-08-18T14:17:38.495Z,31.88
2022-08-18T14:18:42.027Z,31.86
2022-08-18T14:20:05.184Z,31.83
2022-08-18T14:21:28.497Z,31.81
2022-08-18T14:22:51.590Z,31.79
2022-08-18T14:24:14.799Z,31.76
2022-08-18T14:25:35.879Z,31.74
2022-08-18T14:26:50.254Z,31.70
2022-08-18T14:27:56.516Z,31.67
2022-08-18T14:28:59.008Z,31.62
2022-08-18T14:31:20.632Z,31.64
2022-08-18T14:32:29.029Z,31.49
2022-08-18T14:33:34.011Z,31.47
2022-08-18T14:34:35.334Z,31.45
2022-08-18T14:36:05.858Z,31.40
2022-08-18T14:36:45.501Z,31.32
2022-08-18T14:37:49.102Z,31.26
2022-08-18T14:38:54.143Z,31.18
2022-08-18T14:39:58.836Z,31.11
2022-08-18T14:41:05.533Z,31.02
2022-08-18T14:42:12.202Z,30.94
2022-08-18T14:43:20.446Z,30.88
2022-08-18T14:44:30.257Z,30.78
2022-08-18T14:45:34.281Z,30.71
2022-08-18T14:46:36.532Z,30.63
2022-08-18T14:47:41.832Z,30.57
2022-08-18T14:48:45.029Z,30.52
2022-08-18T14:49:50.095Z,30.45
2022-08-18T14:50:56.004Z,30.40
2022-08-18T14:52:01.535Z,30.34
2022-08-18T14:53:05.645Z,30.27
2022-08-18T14:54:09.762Z,30.20
2022-08-18T14:55:16.458Z,30.16
2022-08-18T14:56:20.511Z,30.11
2022-08-18T14:57:25.335Z,30.07
2022-08-18T14:58:30.828Z,30.02
2022-08-18T14:59:37.474Z,30.00
2022-08-18T15:00:53.852Z,30.00
2022-08-18T15:01:44.994Z,29.99
2022-08-18T15:02:50.881Z,30.00
2022-08-18T15:03:55.028Z,29.99
2022-08-18T15:04:58.177Z,29.99
2022-08-18T15:06:04.875Z,29.98
2022-08-18T15:07:10.115Z,29.98
2022-08-18T15:08:13.250Z,29.97
2022-08-18T15:09:16.676Z,29.96
2022-08-18T15:10:23.345Z,29.95
2022-08-18T15:11:26.467Z,29.94
2022-08-18T15:12:29.601Z,29.93
2022-08-18T15:13:33.087Z,29.92
2022-08-18T15:14:37.293Z,29.92
2022-08-18T15:15:50.938Z,29.90
2022-08-18T15:16:46.728Z,29.89
2022-08-18T15:17:52.272Z,29.88
2022-08-18T15:18:54.920Z,29.87